Аэропорт: Толмачёво. Новосибирск

ICAO: UNNT

METAR:
2021-07-28 14:00:00
UNNT 281400Z 08001MPS CAVOK 17/13 Q1009 R25/290155 R34/////// NOSIG RMK QFE747/0996
METAR:
2021-07-28 11:00:00
TAF UNNT 281100Z 2812/2912 17003G08MPS 8000 BKN040CB PROB40 TEMPO 2812/2815 -TSRA TEMPO 2907/2912 19006G13MPS -SHRA